createdAt,value
2022-12-31T00:00:15.783Z,82.00
2022-12-31T00:03:17.926Z,81.65
2022-12-31T00:06:22.747Z,106.13
2022-12-31T00:09:24.710Z,76.47
2022-12-31T00:12:26.716Z,81.53
2022-12-31T00:15:28.869Z,103.43
2022-12-31T00:18:30.924Z,75.00
2022-12-31T00:21:33.394Z,71.22
2022-12-31T00:24:36.013Z,83.50
2022-12-31T00:27:38.067Z,76.95
2022-12-31T00:30:40.075Z,82.43
2022-12-31T00:33:42.315Z,88.60
2022-12-31T00:36:46.165Z,73.95
2022-12-31T00:39:48.332Z,75.07
2022-12-31T00:42:50.327Z,83.30
2022-12-31T00:45:52.401Z,68.57
2022-12-31T00:48:54.543Z,78.57
2022-12-31T00:51:56.561Z,77.68
2022-12-31T00:54:58.592Z,77.85
2022-12-31T00:58:00.594Z,72.55
2022-12-31T01:01:12.755Z,66.95
2022-12-31T01:04:17.572Z,72.07
2022-12-31T01:07:19.617Z,99.60
2022-12-31T01:10:41.601Z,61.17
2022-12-31T01:13:43.635Z,70.65
2022-12-31T01:16:45.688Z,74.07
2022-12-31T01:19:47.720Z,71.17
2022-12-31T01:22:49.736Z,85.78
2022-12-31T01:25:51.765Z,65.78
2022-12-31T01:28:53.814Z,68.25
2022-12-31T01:31:55.832Z,59.05
2022-12-31T01:34:57.847Z,69.22
2022-12-31T01:37:59.902Z,70.38
2022-12-31T01:41:02.155Z,66.33
2022-12-31T01:44:13.361Z,70.57
2022-12-31T01:47:17.272Z,71.47
2022-12-31T01:50:24.640Z,76.33
2022-12-31T01:53:26.636Z,69.18
2022-12-31T01:56:28.749Z,77.93
2022-12-31T01:59:31.441Z,72.82
2022-12-31T02:02:33.640Z,72.00
2022-12-31T02:06:01.994Z,73.65
2022-12-31T02:09:04.076Z,72.68
2022-12-31T02:12:06.936Z,85.07
2022-12-31T02:15:09.329Z,89.10
2022-12-31T02:18:14.208Z,70.50
2022-12-31T02:21:16.186Z,77.53
2022-12-31T02:24:36.198Z,77.20
2022-12-31T02:27:41.320Z,74.47
2022-12-31T02:30:46.697Z,96.05
2022-12-31T02:33:53.221Z,75.63
2022-12-31T02:36:56.765Z,86.90
2022-12-31T02:39:59.074Z,81.30
2022-12-31T02:43:01.080Z,84.63
2022-12-31T02:46:27.337Z,86.22
2022-12-31T02:49:47.764Z,84.30
2022-12-31T02:52:58.375Z,82.37
2022-12-31T02:56:00.426Z,88.80
2022-12-31T02:59:30.290Z,79.30
2022-12-31T03:02:33.713Z,78.47
2022-12-31T03:05:39.311Z,87.82
2022-12-31T03:09:02.126Z,99.13
2022-12-31T03:12:23.772Z,107.03
2022-12-31T03:15:27.460Z,85.43
2022-12-31T03:19:07.854Z,84.28
2022-12-31T03:22:30.221Z,97.85
2022-12-31T03:25:35.822Z,93.30
2022-12-31T03:28:38.710Z,92.28
2022-12-31T03:31:40.847Z,93.82
2022-12-31T03:34:42.997Z,87.80
2022-12-31T03:37:44.957Z,74.78
2022-12-31T03:40:50.862Z,91.68
2022-12-31T03:43:52.856Z,93.07
2022-12-31T03:46:54.837Z,87.13
2022-12-31T03:49:56.849Z,102.82
2022-12-31T03:52:59.013Z,98.25
2022-12-31T03:56:01.000Z,99.70
2022-12-31T03:59:03.052Z,96.00
2022-12-31T04:02:05.364Z,87.72
2022-12-31T04:05:07.608Z,92.47
2022-12-31T04:08:09.672Z,109.82
2022-12-31T04:11:14.748Z,96.47
2022-12-31T04:14:21.212Z,102.78
2022-12-31T04:17:23.233Z,113.07
2022-12-31T04:20:25.287Z,102.28
2022-12-31T04:23:27.283Z,139.07
2022-12-31T04:26:29.297Z,91.37
2022-12-31T04:29:31.395Z,128.15
2022-12-31T04:32:33.537Z,109.07
2022-12-31T04:35:35.596Z,144.73
2022-12-31T04:38:37.634Z,116.63
2022-12-31T04:41:39.687Z,104.85
2022-12-31T04:44:41.681Z,115.45
2022-12-31T04:47:43.683Z,138.80
2022-12-31T04:50:46.750Z,113.82
2022-12-31T04:53:48.893Z,151.75
2022-12-31T04:56:50.926Z,114.13
2022-12-31T04:59:52.927Z,92.63
2022-12-31T05:02:54.988Z,127.60
2022-12-31T05:06:12.065Z,85.25
2022-12-31T05:09:14.048Z,88.00
2022-12-31T05:12:16.100Z,85.07
2022-12-31T05:15:18.163Z,147.07
2022-12-31T05:18:21.637Z,113.77
2022-12-31T05:21:23.667Z,105.65
2022-12-31T05:24:25.707Z,85.68
2022-12-31T05:27:28.419Z,84.23
2022-12-31T05:30:30.456Z,89.95
2022-12-31T05:33:32.527Z,109.03
2022-12-31T05:36:34.552Z,91.15
2022-12-31T05:39:36.545Z,96.28
2022-12-31T05:42:40.120Z,102.28
2022-12-31T05:45:42.208Z,87.78
2022-12-31T05:48:44.229Z,97.20
2022-12-31T05:51:46.265Z,111.30
2022-12-31T05:54:48.310Z,107.32
2022-12-31T05:57:50.329Z,109.90
2022-12-31T06:00:52.585Z,84.10
2022-12-31T06:03:54.626Z,107.55
2022-12-31T06:06:56.696Z,93.07
2022-12-31T06:09:58.991Z,76.93
2022-12-31T06:13:01.017Z,105.40
2022-12-31T06:16:06.951Z,100.60
2022-12-31T06:19:09.518Z,79.07
2022-12-31T06:22:11.537Z,111.68
2022-12-31T06:25:13.581Z,128.52
2022-12-31T06:28:20.019Z,112.03
2022-12-31T06:31:22.676Z,135.65
2022-12-31T06:34:24.786Z,173.90
2022-12-31T06:37:26.986Z,165.18
2022-12-31T06:40:28.989Z,129.80
2022-12-31T06:43:31.043Z,180.93
2022-12-31T06:46:33.049Z,121.22
2022-12-31T06:49:35.085Z,97.53
2022-12-31T06:52:37.231Z,109.95
2022-12-31T06:55:39.518Z,95.75
2022-12-31T06:58:41.868Z,145.07
2022-12-31T07:01:56.047Z,183.05
2022-12-31T07:05:10.072Z,111.40
2022-12-31T07:08:12.090Z,76.65
2022-12-31T07:11:25.357Z,111.15
2022-12-31T07:14:39.373Z,126.43
2022-12-31T07:17:47.874Z,140.65
2022-12-31T07:20:50.178Z,122.60
2022-12-31T07:23:52.316Z,190.57
2022-12-31T07:27:05.216Z,125.43
2022-12-31T07:30:12.360Z,142.87
2022-12-31T07:33:32.756Z,108.30
2022-12-31T07:36:50.603Z,120.63
2022-12-31T07:40:11.294Z,134.48
2022-12-31T07:43:18.297Z,141.05
2022-12-31T07:46:44.142Z,96.43
2022-12-31T07:49:46.320Z,92.20
2022-12-31T07:52:48.383Z,95.03
2022-12-31T07:56:08.949Z,144.57
2022-12-31T07:59:17.385Z,105.10
2022-12-31T08:02:37.445Z,96.83
2022-12-31T08:05:39.523Z,113.88
2022-12-31T08:08:41.646Z,101.88
2022-12-31T08:11:49.123Z,96.38
2022-12-31T08:14:51.313Z,136.05
2022-12-31T08:17:53.428Z,97.95
2022-12-31T08:21:00.729Z,84.38
2022-12-31T08:24:05.569Z,110.70
2022-12-31T08:27:15.294Z,127.82
2022-12-31T08:30:19.451Z,97.13
2022-12-31T08:33:39.996Z,123.40
2022-12-31T08:36:42.397Z,98.47
2022-12-31T08:39:44.387Z,92.90
2022-12-31T08:42:58.448Z,78.82
2022-12-31T08:46:00.564Z,102.68
2022-12-31T08:49:02.746Z,85.88
2022-12-31T08:52:13.033Z,85.82
2022-12-31T08:55:18.862Z,82.33
2022-12-31T08:58:20.915Z,86.82
2022-12-31T09:01:25.407Z,87.25
2022-12-31T09:04:43.011Z,102.57
2022-12-31T09:07:57.032Z,371.40
2022-12-31T09:10:59.007Z,102.22
2022-12-31T09:14:01.428Z,75.22
2022-12-31T09:17:07.614Z,64.55
2022-12-31T09:20:41.822Z,63.67
2022-12-31T09:23:45.385Z,67.57
2022-12-31T09:26:56.351Z,61.10
2022-12-31T09:29:58.428Z,54.88
2022-12-31T09:33:16.679Z,54.05
2022-12-31T09:36:30.906Z,53.10
2022-12-31T09:39:46.327Z,53.15
2022-12-31T09:42:49.132Z,55.78
2022-12-31T09:46:09.616Z,56.38
2022-12-31T09:49:11.695Z,58.53
2022-12-31T09:52:13.687Z,51.35
2022-12-31T09:55:30.741Z,51.45
2022-12-31T09:58:32.898Z,52.63
2022-12-31T10:01:47.004Z,49.85
2022-12-31T10:04:56.229Z,50.35
2022-12-31T10:08:01.072Z,53.70
2022-12-31T10:11:10.729Z,53.65
2022-12-31T10:14:18.711Z,47.35
2022-12-31T10:17:29.686Z,52.25
2022-12-31T10:20:45.594Z,48.50
2022-12-31T10:23:55.443Z,54.60
2022-12-31T10:27:16.562Z,51.03
2022-12-31T10:30:22.301Z,54.67
2022-12-31T10:33:24.535Z,51.97
2022-12-31T10:36:47.179Z,58.05
2022-12-31T10:39:56.651Z,57.70
2022-12-31T10:43:14.219Z,49.45
2022-12-31T10:46:22.441Z,51.42
2022-12-31T10:49:24.989Z,49.47
2022-12-31T10:52:41.557Z,49.50
2022-12-31T10:55:44.034Z,51.58
2022-12-31T10:58:48.926Z,46.25
2022-12-31T11:02:01.654Z,47.00
2022-12-31T11:05:09.683Z,47.92
2022-12-31T11:08:30.764Z,51.10
2022-12-31T11:11:51.283Z,50.83
2022-12-31T11:15:02.685Z,78.10
2022-12-31T11:18:17.896Z,50.28
2022-12-31T11:21:28.494Z,44.22
2022-12-31T11:24:49.250Z,39.23
2022-12-31T11:28:06.367Z,39.15
2022-12-31T11:31:32.792Z,37.88
2022-12-31T11:34:37.598Z,31.27
2022-12-31T11:37:47.638Z,32.78
2022-12-31T11:41:12.549Z,34.70
2022-12-31T11:44:33.263Z,34.70
2022-12-31T11:48:20.559Z,35.87
2022-12-31T11:51:32.661Z,47.47
2022-12-31T11:54:34.667Z,52.80
2022-12-31T11:57:37.959Z,42.80
2022-12-31T12:00:42.931Z,42.03
2022-12-31T12:03:45.376Z,54.97
2022-12-31T12:06:47.417Z,46.17
2022-12-31T12:09:50.160Z,55.60
2022-12-31T12:12:53.009Z,47.13
2022-12-31T12:15:57.231Z,38.20
2022-12-31T12:19:04.538Z,32.10
2022-12-31T12:22:11.242Z,29.48
2022-12-31T12:25:18.238Z,37.97
2022-12-31T12:28:21.863Z,32.10
2022-12-31T12:31:24.157Z,28.35
2022-12-31T12:34:28.342Z,24.70
2022-12-31T12:37:33.137Z,24.63
2022-12-31T12:40:35.186Z,25.73
2022-12-31T12:43:38.155Z,24.75
2022-12-31T12:46:49.699Z,25.52
2022-12-31T12:49:54.363Z,22.35
2022-12-31T12:52:59.699Z,25.80
2022-12-31T12:56:22.726Z,25.50
2022-12-31T12:59:24.722Z,22.20
2022-12-31T13:02:35.805Z,25.33
2022-12-31T13:05:41.038Z,20.95
2022-12-31T13:08:43.075Z,20.67
2022-12-31T13:12:23.693Z,25.87
2022-12-31T13:15:39.240Z,24.13
2022-12-31T13:18:50.207Z,17.88
2022-12-31T13:22:01.080Z,22.23
2022-12-31T13:25:06.020Z,18.87
2022-12-31T13:28:11.246Z,23.42
2022-12-31T13:31:15.274Z,26.30
2022-12-31T13:34:19.378Z,28.98
2022-12-31T13:37:42.153Z,26.77
2022-12-31T13:41:02.840Z,25.50
2022-12-31T13:44:12.038Z,24.35
2022-12-31T13:47:14.895Z,39.78
2022-12-31T13:50:22.798Z,37.63
2022-12-31T13:53:29.527Z,41.67
2022-12-31T13:56:36.357Z,36.47
2022-12-31T13:59:39.665Z,37.75
2022-12-31T14:02:56.940Z,37.72
2022-12-31T14:06:03.062Z,40.58
2022-12-31T14:09:06.059Z,39.83
2022-12-31T14:12:17.984Z,49.53
2022-12-31T14:15:26.397Z,41.72
2022-12-31T14:18:46.523Z,38.65
2022-12-31T14:21:57.464Z,43.15
2022-12-31T14:25:00.882Z,47.43
2022-12-31T14:28:04.397Z,42.88
2022-12-31T14:31:29.497Z,45.53
2022-12-31T14:34:40.406Z,34.50
2022-12-31T14:38:00.777Z,37.97
2022-12-31T14:41:02.889Z,57.25
2022-12-31T14:44:04.913Z,60.15
2022-12-31T14:47:06.937Z,49.75
2022-12-31T14:50:13.943Z,50.40
2022-12-31T14:53:26.096Z,49.92
2022-12-31T14:56:48.338Z,52.92
2022-12-31T15:00:19.245Z,67.82
2022-12-31T15:03:21.748Z,78.57
2022-12-31T15:06:23.995Z,66.88
2022-12-31T15:09:44.501Z,62.85
2022-12-31T15:12:51.524Z,59.58
2022-12-31T15:15:56.281Z,50.77
2022-12-31T15:19:04.186Z,47.38
2022-12-31T15:22:15.226Z,52.95
2022-12-31T15:25:40.808Z,63.13
2022-12-31T15:28:43.662Z,59.00
2022-12-31T15:31:47.171Z,68.65
2022-12-31T15:34:59.693Z,62.15
2022-12-31T15:38:04.458Z,54.07
2022-12-31T15:41:18.529Z,54.33
2022-12-31T15:44:23.283Z,56.05
2022-12-31T15:47:30.162Z,61.17
2022-12-31T15:50:35.845Z,64.50
2022-12-31T15:53:42.839Z,62.55
2022-12-31T15:56:47.372Z,55.40
2022-12-31T15:59:49.449Z,53.93
2022-12-31T16:02:54.997Z,58.22
2022-12-31T16:06:00.414Z,60.92
2022-12-31T16:09:03.211Z,51.70
2022-12-31T16:12:09.689Z,48.90
2022-12-31T16:15:20.654Z,59.38
2022-12-31T16:18:23.443Z,86.75
2022-12-31T16:21:28.432Z,177.25
2022-12-31T16:24:31.664Z,169.45
2022-12-31T16:27:35.434Z,120.30
2022-12-31T16:30:37.463Z,111.17
2022-12-31T16:33:39.519Z,116.78
2022-12-31T16:36:41.582Z,133.52
2022-12-31T16:39:58.870Z,152.32
2022-12-31T16:43:01.226Z,155.43
2022-12-31T16:46:23.025Z,153.68
2022-12-31T16:49:25.585Z,133.77
2022-12-31T16:52:30.726Z,158.33
2022-12-31T16:55:33.314Z,178.38
2022-12-31T16:58:37.336Z,230.13
2022-12-31T17:01:39.821Z,161.82
2022-12-31T17:04:48.100Z,133.75
2022-12-31T17:07:53.699Z,129.45
2022-12-31T17:10:56.610Z,99.53
2022-12-31T17:14:08.286Z,79.20
2022-12-31T17:17:19.565Z,67.93
2022-12-31T17:20:26.303Z,67.95
2022-12-31T17:23:31.431Z,53.22
2022-12-31T17:26:34.826Z,50.78
2022-12-31T17:29:36.917Z,45.70
2022-12-31T17:32:40.009Z,42.03
2022-12-31T17:35:43.285Z,32.03
2022-12-31T17:38:45.315Z,31.13
2022-12-31T17:41:48.119Z,30.45
2022-12-31T17:44:50.255Z,26.70
2022-12-31T17:47:53.831Z,29.27
2022-12-31T17:50:56.962Z,42.13
2022-12-31T17:54:00.442Z,36.13
2022-12-31T17:57:02.549Z,67.20
2022-12-31T18:00:06.693Z,66.10
2022-12-31T18:03:14.383Z,125.15
2022-12-31T18:06:17.289Z,168.98
2022-12-31T18:09:19.629Z,135.63
2022-12-31T18:12:21.798Z,154.85
2022-12-31T18:15:24.572Z,152.52
2022-12-31T18:18:28.081Z,93.43
2022-12-31T18:21:32.668Z,60.03
2022-12-31T18:24:34.997Z,50.40
2022-12-31T18:27:37.043Z,39.33
2022-12-31T18:30:39.167Z,33.30
2022-12-31T18:33:41.451Z,28.05
2022-12-31T18:36:43.493Z,29.38
2022-12-31T18:39:45.537Z,29.88
2022-12-31T18:42:47.646Z,30.70
2022-12-31T18:45:50.083Z,28.75
2022-12-31T18:48:52.202Z,24.83
2022-12-31T18:51:55.285Z,24.67
2022-12-31T18:54:57.395Z,26.20
2022-12-31T18:57:59.380Z,24.75
2022-12-31T19:01:01.554Z,22.85
2022-12-31T19:04:28.137Z,19.98
2022-12-31T19:07:30.480Z,20.50
2022-12-31T19:10:33.607Z,19.10
2022-12-31T19:13:35.717Z,24.27
2022-12-31T19:16:37.793Z,43.07
2022-12-31T19:19:39.884Z,58.65
2022-12-31T19:22:41.965Z,53.50
2022-12-31T19:25:44.270Z,49.42
2022-12-31T19:28:47.225Z,45.83
2022-12-31T19:31:49.744Z,45.70
2022-12-31T19:34:51.784Z,50.47
2022-12-31T19:37:54.782Z,50.77
2022-12-31T19:40:56.826Z,71.60
2022-12-31T19:43:58.854Z,64.10
2022-12-31T19:47:00.856Z,64.30
2022-12-31T19:50:03.099Z,56.17
2022-12-31T19:53:05.478Z,55.65
2022-12-31T19:56:11.015Z,56.58
2022-12-31T19:59:13.042Z,50.17
2022-12-31T20:02:15.282Z,61.25
2022-12-31T20:05:19.406Z,55.63
2022-12-31T20:08:23.052Z,65.63
2022-12-31T20:11:25.373Z,62.85
2022-12-31T20:14:27.487Z,63.35
2022-12-31T20:17:29.480Z,61.90
2022-12-31T20:20:31.542Z,58.55
2022-12-31T20:23:34.798Z,60.47
2022-12-31T20:26:36.802Z,65.22
2022-12-31T20:29:38.891Z,67.30
2022-12-31T20:32:40.942Z,91.13
2022-12-31T20:35:42.956Z,80.60
2022-12-31T20:38:45.004Z,118.07
2022-12-31T20:41:47.025Z,134.55
2022-12-31T20:44:49.056Z,139.05
2022-12-31T20:47:51.352Z,98.80
2022-12-31T20:50:56.869Z,101.05
2022-12-31T20:54:03.177Z,103.20
2022-12-31T20:57:05.241Z,103.25
2022-12-31T21:00:07.769Z,108.17
2022-12-31T21:03:30.148Z,101.70
2022-12-31T21:06:32.188Z,66.47
2022-12-31T21:09:34.240Z,60.47
2022-12-31T21:12:45.371Z,58.63
2022-12-31T21:15:47.939Z,73.13
2022-12-31T21:18:50.137Z,86.93
2022-12-31T21:21:52.124Z,103.95
2022-12-31T21:24:54.287Z,112.20
2022-12-31T21:27:56.329Z,109.15
2022-12-31T21:31:02.614Z,99.17
2022-12-31T21:34:04.760Z,86.75
2022-12-31T21:37:06.815Z,64.85
2022-12-31T21:40:09.155Z,42.10
2022-12-31T21:43:11.770Z,35.47
2022-12-31T21:46:13.781Z,22.60
2022-12-31T21:49:15.859Z,19.70
2022-12-31T21:52:27.029Z,31.83
2022-12-31T21:55:47.625Z,20.30
2022-12-31T21:59:28.894Z,33.95
2022-12-31T22:02:59.134Z,65.90
2022-12-31T22:06:16.300Z,104.15
2022-12-31T22:09:18.353Z,85.35
2022-12-31T22:12:20.375Z,76.57
2022-12-31T22:15:22.368Z,69.03
2022-12-31T22:18:24.601Z,60.63
2022-12-31T22:21:26.894Z,72.90
2022-12-31T22:24:28.920Z,61.17
2022-12-31T22:27:30.980Z,69.20
2022-12-31T22:30:33.401Z,84.15
2022-12-31T22:33:35.459Z,80.00
2022-12-31T22:36:37.463Z,70.75
2022-12-31T22:39:44.379Z,72.35
2022-12-31T22:42:46.956Z,74.68
2022-12-31T22:45:48.936Z,84.35
2022-12-31T22:48:51.515Z,74.68
2022-12-31T22:51:57.471Z,68.10
2022-12-31T22:55:01.812Z,87.83
2022-12-31T22:58:03.841Z,109.93
2022-12-31T23:01:06.771Z,93.60
2022-12-31T23:04:08.977Z,91.33
2022-12-31T23:07:11.110Z,96.15
2022-12-31T23:10:31.645Z,114.68
2022-12-31T23:13:57.725Z,123.15
2022-12-31T23:17:29.979Z,114.28
2022-12-31T23:20:52.029Z,132.00
2022-12-31T23:23:54.053Z,110.55
2022-12-31T23:26:57.061Z,135.87
2022-12-31T23:29:59.106Z,257.75
2022-12-31T23:33:01.141Z,255.35
2022-12-31T23:36:04.192Z,247.17
2022-12-31T23:39:06.173Z,142.60
2022-12-31T23:42:08.440Z,128.05
2022-12-31T23:45:10.571Z,110.15
2022-12-31T23:48:12.604Z,124.15
2022-12-31T23:51:14.599Z,117.93
2022-12-31T23:54:17.937Z,116.72
2022-12-31T23:57:19.984Z,107.20
